createdAt,value
2023-05-08T00:01:12.579Z,1.46
2023-05-08T00:03:41.027Z,1.44
2023-05-08T00:06:09.751Z,1.40
2023-05-08T00:08:38.275Z,1.37
2023-05-08T00:11:06.677Z,1.34
2023-05-08T00:13:35.098Z,1.34
2023-05-08T00:16:03.607Z,1.35
2023-05-08T00:18:32.128Z,1.35
2023-05-08T00:21:00.575Z,1.35
2023-05-08T00:23:28.955Z,1.36
2023-05-08T00:25:58.178Z,1.38
2023-05-08T00:28:26.523Z,1.37
2023-05-08T00:30:54.925Z,1.36
2023-05-08T00:33:23.261Z,1.31
2023-05-08T00:35:51.668Z,1.26
2023-05-08T00:38:20.265Z,1.20
2023-05-08T00:40:49.221Z,1.17
2023-05-08T00:43:17.609Z,1.15
2023-05-08T00:45:46.257Z,1.09
2023-05-08T00:48:14.599Z,1.07
2023-05-08T00:50:43.068Z,1.08
2023-05-08T00:53:12.845Z,1.07
2023-05-08T00:55:41.445Z,1.05
2023-05-08T00:58:10.473Z,1.03
2023-05-08T01:00:41.887Z,1.00
2023-05-08T01:03:11.056Z,0.96
2023-05-08T01:05:40.535Z,0.90
2023-05-08T01:08:08.917Z,0.85
2023-05-08T01:11:17.721Z,0.79
2023-05-08T01:13:55.317Z,0.73
2023-05-08T01:16:34.833Z,0.66
2023-05-08T01:19:26.919Z,0.61
2023-05-08T01:22:18.730Z,0.57
2023-05-08T01:25:11.980Z,0.53
2023-05-08T01:27:55.385Z,0.50
2023-05-08T01:30:39.181Z,0.46
2023-05-08T01:33:36.300Z,0.45
2023-05-08T01:36:25.982Z,0.46
2023-05-08T01:39:36.238Z,0.45
2023-05-08T01:42:29.082Z,0.42
2023-05-08T01:45:01.919Z,0.37
2023-05-08T01:47:33.806Z,0.33
2023-05-08T01:50:09.228Z,0.28
2023-05-08T01:52:51.808Z,0.22
2023-05-08T01:55:36.114Z,0.19
2023-05-08T01:58:10.014Z,0.13
2023-05-08T02:00:40.166Z,0.11
2023-05-08T02:03:11.370Z,0.05
2023-05-08T02:05:40.988Z,0.04
2023-05-08T02:08:11.805Z,0.03
2023-05-08T02:10:42.775Z,0.02
2023-05-08T02:13:14.058Z,0.01
2023-05-08T02:15:43.169Z,-0.01
2023-05-08T02:18:13.641Z,-0.01
2023-05-08T02:20:42.666Z,-0.05
2023-05-08T02:23:12.464Z,-0.07
2023-05-08T02:25:43.048Z,-0.10
2023-05-08T02:28:12.219Z,-0.12
2023-05-08T02:30:41.089Z,-0.16
2023-05-08T02:33:12.081Z,-0.15
2023-05-08T02:35:44.079Z,-0.16
2023-05-08T02:38:40.132Z,-0.19
2023-05-08T02:41:10.303Z,-0.15
2023-05-08T02:43:38.860Z,-0.14
2023-05-08T02:46:15.971Z,-0.14
2023-05-08T02:48:57.635Z,-0.17
2023-05-08T02:51:58.512Z,-0.16
2023-05-08T02:54:44.806Z,-0.19
2023-05-08T02:57:28.996Z,-0.20
2023-05-08T03:00:15.772Z,-0.24
2023-05-08T03:03:02.842Z,-0.30
2023-05-08T03:05:35.526Z,-0.32
2023-05-08T03:08:08.448Z,-0.34
2023-05-08T03:10:38.085Z,-0.34
2023-05-08T03:13:09.630Z,-0.35
2023-05-08T03:15:53.044Z,-0.34
2023-05-08T03:18:26.930Z,-0.29
2023-05-08T03:20:58.416Z,-0.23
2023-05-08T03:23:30.095Z,-0.19
2023-05-08T03:26:00.132Z,-0.17
2023-05-08T03:28:30.714Z,-0.16
2023-05-08T03:31:01.219Z,-0.16
2023-05-08T03:33:31.249Z,-0.10
2023-05-08T03:36:00.231Z,-0.04
2023-05-08T03:38:28.971Z,-0.02
2023-05-08T03:40:59.564Z,0.00
2023-05-08T03:43:29.954Z,0.04
2023-05-08T03:45:58.917Z,0.05
2023-05-08T03:48:29.296Z,0.08
2023-05-08T03:50:59.080Z,0.11
2023-05-08T03:53:27.616Z,0.14
2023-05-08T03:55:58.158Z,0.16
2023-05-08T03:58:37.726Z,0.20
2023-05-08T04:01:19.846Z,0.27
2023-05-08T04:04:12.401Z,0.38
2023-05-08T04:06:51.807Z,0.49
2023-05-08T04:09:45.104Z,0.65
2023-05-08T04:12:39.374Z,0.81
2023-05-08T04:15:21.323Z,1.07
2023-05-08T04:18:00.240Z,1.34
2023-05-08T04:20:30.834Z,1.61
2023-05-08T04:23:00.081Z,1.85
2023-05-08T04:25:30.045Z,2.06
2023-05-08T04:27:59.160Z,2.27
2023-05-08T04:30:27.658Z,2.48
2023-05-08T04:32:56.961Z,2.68
2023-05-08T04:35:25.598Z,2.89
2023-05-08T04:37:54.176Z,3.11
2023-05-08T04:40:22.733Z,3.31
2023-05-08T04:42:51.285Z,3.51
2023-05-08T04:45:19.927Z,3.71
2023-05-08T04:47:48.415Z,3.92
2023-05-08T04:50:16.789Z,4.14
2023-05-08T04:52:45.395Z,4.35
2023-05-08T04:55:14.553Z,4.56
2023-05-08T04:57:43.147Z,4.76
2023-05-08T05:00:12.229Z,4.97
2023-05-08T05:02:40.652Z,5.18
2023-05-08T05:05:09.512Z,5.38
2023-05-08T05:07:38.000Z,5.56
2023-05-08T05:10:06.786Z,5.73
2023-05-08T05:12:35.146Z,5.92
2023-05-08T05:15:03.833Z,6.11
2023-05-08T05:17:32.307Z,6.29
2023-05-08T05:20:00.791Z,6.49
2023-05-08T05:22:29.328Z,6.74
2023-05-08T05:24:58.221Z,6.96
2023-05-08T05:27:26.749Z,7.17
2023-05-08T05:29:55.018Z,7.46
2023-05-08T05:32:23.799Z,7.72
2023-05-08T05:34:54.299Z,7.99
2023-05-08T05:37:23.725Z,8.35
2023-05-08T05:39:52.760Z,8.79
2023-05-08T05:42:21.956Z,9.13
2023-05-08T05:44:50.329Z,9.27
2023-05-08T05:47:18.916Z,9.41
2023-05-08T05:49:47.896Z,9.76
2023-05-08T05:52:16.533Z,10.11
2023-05-08T05:54:46.970Z,10.46
2023-05-08T05:57:15.450Z,10.60
2023-05-08T05:59:43.959Z,10.75
2023-05-08T06:02:18.960Z,10.97
2023-05-08T06:04:47.642Z,11.22
2023-05-08T06:07:16.082Z,11.50
2023-05-08T06:09:45.247Z,12.02
2023-05-08T06:12:14.262Z,12.46
2023-05-08T06:14:43.248Z,12.85
2023-05-08T06:17:12.243Z,13.20
2023-05-08T06:19:41.037Z,13.44
2023-05-08T06:22:09.751Z,13.65
2023-05-08T06:24:38.256Z,13.70
2023-05-08T06:27:06.808Z,13.91
2023-05-08T06:29:36.382Z,14.24
2023-05-08T06:32:05.429Z,14.46
2023-05-08T06:34:34.110Z,14.81
2023-05-08T06:37:02.657Z,15.20
2023-05-08T06:39:34.697Z,15.39
2023-05-08T06:42:05.428Z,15.50
2023-05-08T06:44:36.795Z,15.49
2023-05-08T06:47:05.301Z,15.79
2023-05-08T06:49:37.174Z,16.20
2023-05-08T06:52:05.831Z,16.58
2023-05-08T06:54:34.795Z,17.02
2023-05-08T06:57:04.502Z,17.46
2023-05-08T06:59:32.876Z,17.76
2023-05-08T07:02:01.423Z,18.05
2023-05-08T07:04:32.093Z,18.38
2023-05-08T07:07:01.652Z,18.25
2023-05-08T07:09:30.001Z,18.13
2023-05-08T07:11:58.353Z,18.30
2023-05-08T07:14:27.862Z,18.74
2023-05-08T07:16:56.260Z,18.43
2023-05-08T07:19:25.432Z,18.10
2023-05-08T07:21:53.877Z,17.96
2023-05-08T07:24:22.263Z,18.09
2023-05-08T07:26:50.492Z,18.37
2023-05-08T07:29:18.958Z,18.65
2023-05-08T07:31:48.955Z,18.61
2023-05-08T07:34:17.364Z,18.33
2023-05-08T07:36:46.000Z,18.34
2023-05-08T07:39:18.613Z,18.35
2023-05-08T07:41:49.634Z,18.55
2023-05-08T07:44:18.459Z,18.95
2023-05-08T07:46:46.863Z,19.30
2023-05-08T07:49:17.057Z,19.86
2023-05-08T07:51:45.486Z,20.10
2023-05-08T07:54:14.298Z,20.11
2023-05-08T07:56:43.552Z,20.18
2023-05-08T07:59:12.014Z,20.56
2023-05-08T08:01:42.899Z,20.84
2023-05-08T08:04:14.687Z,21.15
2023-05-08T08:06:44.636Z,21.69
2023-05-08T08:09:13.065Z,21.85
2023-05-08T08:11:41.591Z,21.44
2023-05-08T08:14:10.208Z,21.01
2023-05-08T08:16:38.748Z,21.00
2023-05-08T08:19:07.619Z,21.18
2023-05-08T08:21:36.033Z,21.35
2023-05-08T08:24:04.832Z,21.50
2023-05-08T08:26:33.251Z,21.13
2023-05-08T08:29:02.546Z,21.37
2023-05-08T08:31:31.449Z,21.56
2023-05-08T08:34:00.167Z,21.91
2023-05-08T08:36:28.688Z,21.78
2023-05-08T08:38:57.159Z,21.96
2023-05-08T08:41:25.600Z,22.40
2023-05-08T08:43:55.750Z,22.17
2023-05-08T08:46:28.627Z,22.33
2023-05-08T08:48:59.076Z,22.78
2023-05-08T08:51:36.444Z,23.30
2023-05-08T08:54:09.916Z,23.84
2023-05-08T08:56:41.143Z,23.89
2023-05-08T08:59:10.945Z,23.63
2023-05-08T09:01:41.366Z,23.48
2023-05-08T09:04:10.448Z,23.26
2023-05-08T09:06:41.600Z,23.35
2023-05-08T09:09:13.755Z,23.73
2023-05-08T09:11:44.136Z,24.61
2023-05-08T09:14:13.406Z,25.36
2023-05-08T09:16:43.112Z,25.61
2023-05-08T09:19:16.323Z,25.38
2023-05-08T09:21:45.670Z,25.19
2023-05-08T09:24:14.137Z,24.99
2023-05-08T09:26:43.152Z,24.49
2023-05-08T09:29:20.327Z,23.65
2023-05-08T09:31:51.258Z,24.06
2023-05-08T09:34:28.841Z,24.34
2023-05-08T09:37:13.951Z,24.45
2023-05-08T09:39:44.037Z,24.75
2023-05-08T09:42:12.549Z,24.02
2023-05-08T09:44:52.696Z,24.13
2023-05-08T09:47:23.748Z,24.33
2023-05-08T09:50:11.616Z,23.91
2023-05-08T09:52:47.660Z,23.85
2023-05-08T09:55:16.070Z,24.16
2023-05-08T09:57:58.597Z,24.60
2023-05-08T10:00:28.750Z,24.53
2023-05-08T10:03:03.410Z,24.98
2023-05-08T10:05:35.059Z,25.17
2023-05-08T10:08:27.896Z,25.12
2023-05-08T10:11:14.500Z,24.87
2023-05-08T10:13:46.765Z,25.00
2023-05-08T10:16:18.023Z,24.96
2023-05-08T10:18:51.239Z,23.98
2023-05-08T10:21:20.760Z,23.86
2023-05-08T10:23:51.930Z,24.51
2023-05-08T10:26:27.771Z,24.67
2023-05-08T10:28:58.534Z,24.21
2023-05-08T10:31:31.738Z,24.34
2023-05-08T10:34:03.451Z,25.26
2023-05-08T10:36:33.010Z,25.76
2023-05-08T10:39:01.841Z,26.02
2023-05-08T10:41:30.772Z,26.50
2023-05-08T10:44:03.214Z,27.31
2023-05-08T10:46:43.842Z,27.74
2023-05-08T10:49:41.774Z,27.69
2023-05-08T10:52:28.900Z,27.05
2023-05-08T10:55:09.316Z,26.75
2023-05-08T10:57:37.820Z,26.60
2023-05-08T11:00:07.298Z,26.32
2023-05-08T11:02:38.621Z,26.51
2023-05-08T11:05:20.782Z,26.48
2023-05-08T11:08:17.433Z,26.29
2023-05-08T11:11:01.377Z,26.08
2023-05-08T11:13:36.893Z,25.41
2023-05-08T11:16:07.268Z,25.33
2023-05-08T11:18:48.482Z,25.70
2023-05-08T11:21:24.718Z,25.99
2023-05-08T11:23:59.413Z,26.03
2023-05-08T11:26:43.067Z,26.30
2023-05-08T11:29:18.045Z,26.11
2023-05-08T11:31:50.966Z,25.69
2023-05-08T11:34:44.559Z,25.27
2023-05-08T11:37:19.043Z,25.45
2023-05-08T11:40:42.380Z,25.50
2023-05-08T11:43:42.076Z,25.42
2023-05-08T11:46:18.557Z,25.29
2023-05-08T11:48:47.266Z,25.30
2023-05-08T11:51:20.404Z,25.11
2023-05-08T11:53:49.028Z,24.58
2023-05-08T11:56:17.451Z,24.14
2023-05-08T11:58:45.927Z,24.15
2023-05-08T12:01:20.418Z,24.53
2023-05-08T12:03:49.979Z,25.14
2023-05-08T12:06:19.517Z,25.49
2023-05-08T12:08:47.952Z,25.01
2023-05-08T12:11:24.038Z,24.69
2023-05-08T12:13:53.866Z,24.70
2023-05-08T12:16:26.386Z,24.18
2023-05-08T12:18:57.678Z,24.23
2023-05-08T12:21:26.166Z,24.43
2023-05-08T12:23:56.516Z,24.35
2023-05-08T12:26:25.382Z,24.44
2023-05-08T12:28:57.125Z,24.45
2023-05-08T12:31:25.831Z,24.46
2023-05-08T12:33:55.864Z,24.15
2023-05-08T12:36:24.455Z,23.65
2023-05-08T12:39:09.160Z,22.81
2023-05-08T12:41:52.140Z,22.23
2023-05-08T12:44:25.380Z,22.01
2023-05-08T12:46:54.657Z,21.84
2023-05-08T12:49:29.151Z,21.31
2023-05-08T12:52:02.272Z,20.61
2023-05-08T12:54:39.577Z,19.94
2023-05-08T12:57:13.502Z,19.06
2023-05-08T12:59:43.421Z,18.53
2023-05-08T13:02:24.190Z,18.13
2023-05-08T13:04:56.490Z,18.24
2023-05-08T13:07:25.184Z,19.13
2023-05-08T13:10:04.038Z,19.87
2023-05-08T13:12:32.869Z,20.25
2023-05-08T13:15:01.949Z,20.56
2023-05-08T13:17:30.456Z,20.58
2023-05-08T13:19:59.181Z,20.58
2023-05-08T13:22:27.650Z,20.64
2023-05-08T13:24:56.190Z,20.11
2023-05-08T13:27:24.739Z,19.55
2023-05-08T13:29:54.295Z,19.08
2023-05-08T13:32:22.838Z,18.48
2023-05-08T13:34:53.160Z,17.86
2023-05-08T13:37:24.844Z,17.43
2023-05-08T13:40:02.501Z,17.04
2023-05-08T13:42:31.022Z,16.94
2023-05-08T13:44:59.491Z,16.89
2023-05-08T13:47:28.238Z,16.74
2023-05-08T13:49:56.701Z,16.67
2023-05-08T13:52:25.660Z,16.67
2023-05-08T13:54:54.487Z,16.57
2023-05-08T13:57:23.145Z,16.51
2023-05-08T13:59:52.402Z,16.44
2023-05-08T14:02:21.140Z,16.41
2023-05-08T14:04:50.068Z,16.13
2023-05-08T14:07:18.905Z,15.96
2023-05-08T14:09:47.793Z,15.95
2023-05-08T14:12:17.260Z,15.93
2023-05-08T14:14:45.803Z,15.91
2023-05-08T14:17:14.239Z,15.92
2023-05-08T14:19:42.905Z,15.90
2023-05-08T14:22:11.347Z,15.82
2023-05-08T14:24:40.424Z,15.77
2023-05-08T14:27:11.871Z,15.77
2023-05-08T14:29:41.881Z,15.74
2023-05-08T14:32:11.380Z,15.68
2023-05-08T14:34:40.036Z,15.59
2023-05-08T14:37:08.642Z,15.52
2023-05-08T14:39:38.204Z,15.45
2023-05-08T14:42:22.202Z,15.41
2023-05-08T14:44:52.302Z,15.38
2023-05-08T14:47:21.421Z,15.34
2023-05-08T14:49:50.651Z,15.30
2023-05-08T14:52:19.139Z,15.29
2023-05-08T14:54:53.647Z,15.27
2023-05-08T14:57:22.321Z,15.24
2023-05-08T15:02:40.500Z,15.27
2023-05-08T15:05:18.870Z,15.22
2023-05-08T15:07:50.512Z,15.11
2023-05-08T15:10:19.374Z,15.00
2023-05-08T15:12:48.427Z,14.99
2023-05-08T15:15:17.261Z,15.03
2023-05-08T15:17:46.631Z,15.08
2023-05-08T15:20:15.470Z,15.09
2023-05-08T15:22:44.621Z,15.04
2023-05-08T15:25:13.481Z,15.04
2023-05-08T15:27:43.037Z,15.04
2023-05-08T15:30:12.980Z,15.02
2023-05-08T15:32:43.772Z,15.02
2023-05-08T15:35:12.546Z,14.99
2023-05-08T15:37:42.575Z,14.99
2023-05-08T15:40:14.659Z,14.99
2023-05-08T15:42:43.200Z,14.98
2023-05-08T15:45:12.154Z,14.93
2023-05-08T15:47:41.449Z,14.90
2023-05-08T15:50:10.431Z,14.86
2023-05-08T15:52:39.241Z,14.87
2023-05-08T15:55:08.115Z,14.86
2023-05-08T15:57:36.954Z,14.85
2023-05-08T16:00:06.476Z,14.84
2023-05-08T16:02:35.299Z,14.80
2023-05-08T16:05:04.332Z,14.74
2023-05-08T16:07:32.712Z,14.74
2023-05-08T16:10:01.153Z,14.75
2023-05-08T16:12:29.661Z,14.67
2023-05-08T16:14:58.264Z,14.60
2023-05-08T16:17:26.671Z,14.57
2023-05-08T16:19:55.129Z,14.54
2023-05-08T16:22:23.579Z,14.49
2023-05-08T16:24:54.370Z,14.47
2023-05-08T16:27:22.880Z,14.52
2023-05-08T16:29:51.315Z,14.52
2023-05-08T16:32:19.862Z,14.50
2023-05-08T16:34:49.971Z,14.44
2023-05-08T16:37:18.486Z,14.37
2023-05-08T16:39:54.077Z,14.36
2023-05-08T16:42:22.599Z,14.32
2023-05-08T16:44:51.074Z,14.32
2023-05-08T16:47:19.705Z,14.29
2023-05-08T16:49:48.265Z,14.24
2023-05-08T16:52:17.029Z,14.20
2023-05-08T16:54:45.405Z,14.15
2023-05-08T16:57:13.798Z,14.13
2023-05-08T16:59:42.865Z,14.12
2023-05-08T17:02:12.374Z,14.11
2023-05-08T17:04:41.914Z,14.11
2023-05-08T17:07:10.347Z,14.09
2023-05-08T17:09:38.695Z,13.99
2023-05-08T17:12:08.162Z,13.94
2023-05-08T17:14:39.596Z,13.87
2023-05-08T17:17:08.126Z,13.85
2023-05-08T17:19:36.625Z,13.82
2023-05-08T17:22:05.175Z,13.75
2023-05-08T17:24:33.690Z,13.69
2023-05-08T17:27:02.068Z,13.65
2023-05-08T17:29:30.449Z,13.62
2023-05-08T17:31:59.061Z,13.56
2023-05-08T17:34:28.175Z,13.50
2023-05-08T17:36:56.958Z,13.43
2023-05-08T17:39:30.081Z,13.36
2023-05-08T17:41:59.058Z,13.33
2023-05-08T17:44:28.169Z,13.29
2023-05-08T17:46:57.116Z,13.24
2023-05-08T17:49:29.123Z,13.18
2023-05-08T17:51:58.085Z,13.13
2023-05-08T17:54:27.498Z,13.04
2023-05-08T17:56:55.960Z,12.96
2023-05-08T17:59:25.038Z,12.87
2023-05-08T18:01:54.881Z,12.75
2023-05-08T18:04:23.793Z,12.64
2023-05-08T18:06:53.402Z,12.57
2023-05-08T18:09:22.443Z,12.51
2023-05-08T18:11:51.081Z,12.41
2023-05-08T18:14:19.498Z,12.30
2023-05-08T18:16:47.850Z,12.20
2023-05-08T18:19:17.174Z,12.07
2023-05-08T18:21:46.010Z,11.91
2023-05-08T18:24:14.801Z,11.73
2023-05-08T18:26:43.550Z,11.56
2023-05-08T18:29:12.045Z,11.39
2023-05-08T18:31:40.949Z,11.25
2023-05-08T18:34:09.341Z,11.11
2023-05-08T18:36:38.921Z,10.98
2023-05-08T18:39:09.126Z,10.85
2023-05-08T18:41:38.362Z,10.72
2023-05-08T18:44:07.811Z,10.60
2023-05-08T18:46:36.635Z,10.46
2023-05-08T18:49:05.934Z,10.36
2023-05-08T18:51:35.320Z,10.25
2023-05-08T18:54:04.444Z,10.13
2023-05-08T18:56:34.631Z,10.01
2023-05-08T18:59:04.097Z,9.89
2023-05-08T19:01:33.642Z,9.77
2023-05-08T19:04:04.647Z,9.66
2023-05-08T19:06:33.958Z,9.56
2023-05-08T19:09:02.397Z,9.47
2023-05-08T19:11:31.099Z,9.39
2023-05-08T19:13:59.494Z,9.30
2023-05-08T19:16:28.302Z,9.22
2023-05-08T19:18:56.730Z,9.13
2023-05-08T19:21:25.542Z,9.06
2023-05-08T19:23:55.813Z,8.99
2023-05-08T19:26:25.232Z,8.91
2023-05-08T19:28:54.296Z,8.84
2023-05-08T19:31:22.885Z,8.79
2023-05-08T19:33:51.396Z,8.73
2023-05-08T19:36:19.926Z,8.67
2023-05-08T19:38:49.507Z,8.59
2023-05-08T19:41:18.249Z,8.54
2023-05-08T19:43:47.551Z,8.50
2023-05-08T19:46:16.222Z,8.45
2023-05-08T19:48:45.135Z,8.38
2023-05-08T19:51:13.764Z,8.33
2023-05-08T19:53:42.767Z,8.28
2023-05-08T19:56:11.304Z,8.23
2023-05-08T19:58:39.791Z,8.20
2023-05-08T20:01:08.236Z,8.16
2023-05-08T20:03:36.768Z,8.12
2023-05-08T20:06:05.292Z,8.08
2023-05-08T20:08:33.741Z,8.05
2023-05-08T20:11:04.366Z,8.01
2023-05-08T20:13:32.934Z,7.93
2023-05-08T20:16:03.721Z,7.87
2023-05-08T20:18:34.382Z,7.80
2023-05-08T20:21:02.991Z,7.70
2023-05-08T20:23:31.373Z,7.58
2023-05-08T20:25:59.849Z,7.45
2023-05-08T20:28:28.479Z,7.29
2023-05-08T20:30:57.145Z,7.14
2023-05-08T20:33:25.706Z,7.03
2023-05-08T20:35:54.904Z,6.91
2023-05-08T20:38:23.454Z,6.78
2023-05-08T20:40:54.168Z,6.68
2023-05-08T20:43:24.893Z,6.72
2023-05-08T20:45:53.949Z,6.67
2023-05-08T20:48:23.354Z,6.52
2023-05-08T20:50:51.791Z,6.37
2023-05-08T20:53:20.244Z,6.23
2023-05-08T20:55:48.802Z,6.11
2023-05-08T20:58:17.254Z,6.01
2023-05-08T21:00:46.293Z,5.90
2023-05-08T21:03:15.274Z,5.78
2023-05-08T21:05:43.724Z,5.67
2023-05-08T21:08:12.189Z,5.56
2023-05-08T21:10:41.304Z,5.47
2023-05-08T21:13:10.446Z,5.39
2023-05-08T21:15:38.921Z,5.31
2023-05-08T21:18:07.574Z,5.20
2023-05-08T21:20:36.163Z,5.12
2023-05-08T21:23:05.108Z,5.07
2023-05-08T21:25:33.994Z,5.04
2023-05-08T21:28:02.436Z,4.99
2023-05-08T21:30:30.991Z,4.96
2023-05-08T21:32:59.488Z,4.91
2023-05-08T21:35:28.085Z,4.86
2023-05-08T21:37:57.029Z,4.82
2023-05-08T21:40:26.915Z,4.76
2023-05-08T21:42:55.946Z,4.68
2023-05-08T21:45:25.043Z,4.62
2023-05-08T21:47:55.417Z,4.56
2023-05-08T21:50:24.592Z,4.50
2023-05-08T21:52:53.584Z,4.44
2023-05-08T21:55:23.747Z,4.37
2023-05-08T21:57:54.095Z,4.30
2023-05-08T22:00:22.851Z,4.23
2023-05-08T22:02:51.454Z,4.18
2023-05-08T22:05:20.309Z,4.14
2023-05-08T22:07:48.841Z,4.09
2023-05-08T22:10:17.971Z,4.05
2023-05-08T22:12:46.704Z,4.03
2023-05-08T22:15:26.089Z,4.02
2023-05-08T22:17:57.533Z,3.99
2023-05-08T22:20:26.879Z,3.95
2023-05-08T22:22:55.336Z,3.92
2023-05-08T22:25:25.535Z,3.89
2023-05-08T22:27:54.023Z,3.88
2023-05-08T22:30:23.036Z,3.83
2023-05-08T22:32:57.554Z,3.78
2023-05-08T22:35:27.916Z,3.73
2023-05-08T22:37:59.699Z,3.67
2023-05-08T22:40:32.606Z,3.62
2023-05-08T22:43:01.522Z,3.54
2023-05-08T22:45:30.075Z,3.51
2023-05-08T22:47:58.608Z,3.48
2023-05-08T22:50:27.201Z,3.47
2023-05-08T22:52:56.446Z,3.46
2023-05-08T22:55:24.823Z,3.44
2023-05-08T22:57:53.822Z,3.40
2023-05-08T23:00:22.293Z,3.38
2023-05-08T23:02:51.553Z,3.36
2023-05-08T23:05:20.056Z,3.32
2023-05-08T23:07:48.421Z,3.28
2023-05-08T23:10:16.939Z,3.26
2023-05-08T23:12:45.383Z,3.24
2023-05-08T23:15:14.415Z,3.18
2023-05-08T23:17:43.214Z,3.14
2023-05-08T23:20:11.925Z,3.09
2023-05-08T23:22:41.144Z,3.03
2023-05-08T23:25:12.928Z,2.98
2023-05-08T23:27:41.596Z,2.96
2023-05-08T23:30:13.509Z,2.96
2023-05-08T23:32:42.117Z,2.92
2023-05-08T23:35:11.247Z,2.89
2023-05-08T23:37:39.760Z,2.88
2023-05-08T23:40:14.242Z,2.88
2023-05-08T23:42:44.143Z,2.83
2023-05-08T23:45:13.036Z,2.82
2023-05-08T23:47:41.791Z,2.80
2023-05-08T23:50:11.185Z,2.73
2023-05-08T23:52:39.714Z,2.66
2023-05-08T23:55:09.751Z,2.58
2023-05-08T23:57:38.169Z,2.54
